createdAt,value
2017-10-01T00:00:15.052Z,12.20
2017-10-01T00:00:48.781Z,12.20
2017-10-01T00:01:22.499Z,12.20
2017-10-01T00:01:55.947Z,12.20
2017-10-01T00:02:29.653Z,12.20
2017-10-01T00:03:04.273Z,12.20
2017-10-01T00:03:38.765Z,12.20
2017-10-01T00:04:12.490Z,12.20
2017-10-01T00:04:46.213Z,12.20
2017-10-01T00:05:19.930Z,12.20
2017-10-01T00:05:53.648Z,12.20
2017-10-01T00:06:28.146Z,12.20
2017-10-01T00:07:02.895Z,12.20
2017-10-01T00:07:36.609Z,12.20
2017-10-01T00:08:10.354Z,12.20
2017-10-01T00:08:44.073Z,12.20
2017-10-01T00:09:17.778Z,12.20
2017-10-01T00:09:51.504Z,12.20
2017-10-01T00:10:25.230Z,12.10
2017-10-01T00:10:58.961Z,12.10
2017-10-01T00:11:32.671Z,12.10
2017-10-01T00:12:06.523Z,12.10
2017-10-01T00:12:40.245Z,12.20
2017-10-01T00:13:14.069Z,12.20
2017-10-01T00:13:48.552Z,12.20
2017-10-01T00:14:22.080Z,12.10
2017-10-01T00:14:55.803Z,12.10
2017-10-01T00:15:29.521Z,12.20
2017-10-01T00:16:03.255Z,12.10
2017-10-01T00:16:36.978Z,12.10
2017-10-01T00:17:10.728Z,12.10
2017-10-01T00:17:45.217Z,12.10
2017-10-01T00:18:19.696Z,12.10
2017-10-01T00:18:53.436Z,12.10
2017-10-01T00:19:27.929Z,12.10
2017-10-01T00:20:02.612Z,12.10
2017-10-01T00:20:36.541Z,12.10
2017-10-01T00:21:10.839Z,12.10
2017-10-01T00:21:45.332Z,12.10
2017-10-01T00:22:19.068Z,12.00
2017-10-01T00:22:52.790Z,12.10
2017-10-01T00:23:26.525Z,12.00
2017-10-01T00:24:00.815Z,12.00
2017-10-01T00:24:34.197Z,12.00
2017-10-01T00:25:07.924Z,12.00
2017-10-01T00:25:41.665Z,12.00
2017-10-01T00:26:15.387Z,12.00
2017-10-01T00:26:49.876Z,12.00
2017-10-01T00:27:23.790Z,12.00
2017-10-01T00:27:58.279Z,12.00
2017-10-01T00:28:31.992Z,12.00
2017-10-01T00:29:06.809Z,12.00
2017-10-01T00:29:41.302Z,12.10
2017-10-01T00:30:15.912Z,12.00
2017-10-01T00:30:49.717Z,12.00
2017-10-01T00:31:24.210Z,12.00
2017-10-01T00:31:57.935Z,12.00
2017-10-01T00:32:31.618Z,12.00
2017-10-01T00:33:05.336Z,12.00
2017-10-01T00:33:39.153Z,12.00
2017-10-01T00:34:12.545Z,12.00
2017-10-01T00:34:46.264Z,12.00
2017-10-01T00:35:20.419Z,12.00
2017-10-01T00:35:54.137Z,12.00
2017-10-01T00:36:27.882Z,12.00
2017-10-01T00:37:01.604Z,12.00
2017-10-01T00:37:35.341Z,12.00
2017-10-01T00:38:08.989Z,12.00
2017-10-01T00:38:42.718Z,12.00
2017-10-01T00:39:16.107Z,12.00
2017-10-01T00:39:49.514Z,12.00
2017-10-01T00:40:22.875Z,12.00
2017-10-01T00:40:56.901Z,12.00
2017-10-01T00:41:30.737Z,12.00
2017-10-01T00:42:04.704Z,12.00
2017-10-01T00:42:38.536Z,12.00
2017-10-01T00:43:13.240Z,12.00
2017-10-01T00:43:47.928Z,12.00
2017-10-01T00:44:21.647Z,12.00
2017-10-01T00:44:55.006Z,12.00
2017-10-01T00:45:28.722Z,12.00
2017-10-01T00:46:03.236Z,12.00
2017-10-01T00:46:36.635Z,12.00
2017-10-01T00:47:10.019Z,12.00
2017-10-01T00:47:43.742Z,12.00
2017-10-01T00:48:17.473Z,11.90
2017-10-01T00:48:51.187Z,11.90
2017-10-01T00:49:24.897Z,11.90
2017-10-01T00:49:58.630Z,11.90
2017-10-01T00:50:32.390Z,11.90
2017-10-01T00:51:05.522Z,11.90
2017-10-01T00:51:39.322Z,11.90
2017-10-01T00:52:13.543Z,11.90
2017-10-01T00:52:47.309Z,11.90
2017-10-01T00:53:22.127Z,11.90
2017-10-01T00:53:56.272Z,11.90
2017-10-01T00:54:29.997Z,11.90
2017-10-01T00:55:04.477Z,11.90
2017-10-01T00:55:37.500Z,11.90
2017-10-01T00:56:11.643Z,11.90
2017-10-01T00:56:44.668Z,11.90
2017-10-01T00:57:18.455Z,11.90
2017-10-01T00:57:51.847Z,11.90
2017-10-01T00:58:27.280Z,11.90
2017-10-01T00:59:01.426Z,11.90
2017-10-01T00:59:35.136Z,11.90
2017-10-01T01:00:08.854Z,11.90
2017-10-01T01:00:42.497Z,11.90
2017-10-01T01:01:16.227Z,11.80
2017-10-01T01:01:49.608Z,11.90
2017-10-01T01:02:23.334Z,11.90
2017-10-01T01:02:57.075Z,11.90
2017-10-01T01:03:30.792Z,11.80
2017-10-01T01:04:04.928Z,11.80
2017-10-01T01:04:38.300Z,11.80
2017-10-01T01:05:11.673Z,11.80
2017-10-01T01:05:45.501Z,11.80
2017-10-01T01:06:19.229Z,11.80
2017-10-01T01:06:52.602Z,11.80
2017-10-01T01:07:26.329Z,11.80
2017-10-01T01:08:00.438Z,11.80
2017-10-01T01:08:33.821Z,11.80
2017-10-01T01:09:07.557Z,11.80
2017-10-01T01:09:41.286Z,11.80
2017-10-01T01:10:15.776Z,11.80
2017-10-01T01:10:49.152Z,11.80
2017-10-01T01:11:25.579Z,11.80
2017-10-01T01:11:59.304Z,11.80
2017-10-01T01:12:32.680Z,11.80
2017-10-01T01:13:06.452Z,11.80
2017-10-01T01:13:39.842Z,11.80
2017-10-01T01:14:13.220Z,11.80
2017-10-01T01:14:46.939Z,11.80
2017-10-01T01:15:20.322Z,11.80
2017-10-01T01:15:54.031Z,11.80
2017-10-01T01:16:28.166Z,11.80
2017-10-01T01:17:01.544Z,11.80
2017-10-01T01:17:34.924Z,11.80
2017-10-01T01:18:08.643Z,11.80
2017-10-01T01:18:41.668Z,11.80
2017-10-01T01:19:15.032Z,11.80
2017-10-01T01:19:49.188Z,11.80
2017-10-01T01:20:22.642Z,11.80
2017-10-01T01:20:56.008Z,11.80
2017-10-01T01:21:29.792Z,11.80
2017-10-01T01:22:03.601Z,11.80
2017-10-01T01:22:36.633Z,11.80
2017-10-01T01:23:09.704Z,11.80
2017-10-01T01:23:42.749Z,11.80
2017-10-01T01:24:15.798Z,11.80
2017-10-01T01:24:49.169Z,11.80
2017-10-01T01:25:22.275Z,11.80
2017-10-01T01:25:55.302Z,11.80
2017-10-01T01:26:28.351Z,11.80
2017-10-01T01:27:01.556Z,11.80
2017-10-01T01:27:34.588Z,11.80
2017-10-01T01:28:07.611Z,11.80
2017-10-01T01:28:41.328Z,11.80
2017-10-01T01:29:14.352Z,11.80
2017-10-01T01:29:47.396Z,11.80
2017-10-01T01:30:20.776Z,11.80
2017-10-01T01:30:53.805Z,11.80
2017-10-01T01:31:26.838Z,11.80
2017-10-01T01:31:59.864Z,11.80
2017-10-01T01:32:33.776Z,11.80
2017-10-01T01:33:06.799Z,11.80
2017-10-01T01:33:40.010Z,11.80
2017-10-01T01:34:14.513Z,11.80
2017-10-01T01:34:48.700Z,11.80
2017-10-01T01:35:21.726Z,11.80
2017-10-01T01:35:55.105Z,11.80
2017-10-01T01:36:28.489Z,11.80
2017-10-01T01:37:01.650Z,11.80
2017-10-01T01:37:35.485Z,11.80
2017-10-01T01:38:08.920Z,11.80
2017-10-01T01:38:42.778Z,11.80
2017-10-01T01:39:16.410Z,11.80
2017-10-01T01:39:49.548Z,11.80
2017-10-01T01:40:22.582Z,11.80
2017-10-01T01:40:55.608Z,11.80
2017-10-01T01:41:29.389Z,11.80
2017-10-01T01:42:02.716Z,11.80
2017-10-01T01:42:36.114Z,11.80
2017-10-01T01:43:10.037Z,11.80
2017-10-01T01:43:43.161Z,11.80
2017-10-01T01:44:17.763Z,11.80
2017-10-01T01:44:51.566Z,11.80
2017-10-01T01:45:25.355Z,11.70
2017-10-01T01:45:59.172Z,11.70
2017-10-01T01:46:32.203Z,11.70
2017-10-01T01:47:05.585Z,11.70
2017-10-01T01:47:38.420Z,11.70
2017-10-01T01:48:11.445Z,11.70
2017-10-01T01:48:45.247Z,11.70
2017-10-01T01:49:19.409Z,11.70
2017-10-01T01:49:52.270Z,11.70
2017-10-01T01:50:25.308Z,11.70
2017-10-01T01:50:58.340Z,11.70
2017-10-01T01:51:31.560Z,11.70
2017-10-01T01:52:05.032Z,11.70
2017-10-01T01:52:39.341Z,11.70
2017-10-01T01:53:12.206Z,11.70
2017-10-01T01:53:46.096Z,11.70
2017-10-01T01:54:20.711Z,11.70
2017-10-01T01:54:54.318Z,11.60
2017-10-01T01:55:27.172Z,11.60
2017-10-01T01:56:00.357Z,11.60
2017-10-01T01:56:33.732Z,11.60
2017-10-01T01:57:07.677Z,11.60
2017-10-01T01:57:41.066Z,11.60
2017-10-01T01:58:13.928Z,11.60
2017-10-01T01:58:46.800Z,11.60
2017-10-01T01:59:19.857Z,11.60
2017-10-01T01:59:52.903Z,11.60
2017-10-01T02:00:27.041Z,11.60
2017-10-01T02:01:00.778Z,11.60
2017-10-01T02:01:34.565Z,11.60
2017-10-01T02:02:08.279Z,11.60
2017-10-01T02:02:41.312Z,11.70
2017-10-01T02:03:14.343Z,11.60
2017-10-01T02:03:48.056Z,11.60
2017-10-01T02:04:21.087Z,11.60
2017-10-01T02:04:55.198Z,11.60
2017-10-01T02:05:28.215Z,11.60
2017-10-01T02:06:01.304Z,11.60
2017-10-01T02:06:34.338Z,11.60
2017-10-01T02:07:07.472Z,11.60
2017-10-01T02:07:40.503Z,11.60
2017-10-01T02:08:14.044Z,11.60
2017-10-01T02:08:47.836Z,11.60
2017-10-01T02:09:21.968Z,11.60
2017-10-01T02:09:55.344Z,11.60
2017-10-01T02:10:28.718Z,11.60
2017-10-01T02:11:02.083Z,11.60
2017-10-01T02:11:35.892Z,11.60
2017-10-01T02:12:08.930Z,11.60
2017-10-01T02:12:42.681Z,11.60
2017-10-01T02:13:15.703Z,11.60
2017-10-01T02:13:48.727Z,11.60
2017-10-01T02:14:21.784Z,11.60
2017-10-01T02:14:55.491Z,11.60
2017-10-01T02:15:28.544Z,11.50
2017-10-01T02:16:03.035Z,11.50
2017-10-01T02:16:37.168Z,11.50
2017-10-01T02:17:10.201Z,11.50
2017-10-01T02:17:43.584Z,11.60
2017-10-01T02:18:17.376Z,11.50
2017-10-01T02:18:51.186Z,11.50
2017-10-01T02:19:24.910Z,11.50
2017-10-01T02:19:58.322Z,11.50
2017-10-01T02:20:31.851Z,11.50
2017-10-01T02:21:06.008Z,11.50
2017-10-01T02:21:39.536Z,11.50
2017-10-01T02:22:14.024Z,11.50
2017-10-01T02:22:48.517Z,11.50
2017-10-01T02:23:22.235Z,11.40
2017-10-01T02:23:56.732Z,11.40
2017-10-01T02:24:30.472Z,11.50
2017-10-01T02:25:04.204Z,11.40
2017-10-01T02:25:37.945Z,11.40
2017-10-01T02:26:11.337Z,11.40
2017-10-01T02:26:44.767Z,11.40
2017-10-01T02:27:18.477Z,11.40
2017-10-01T02:27:52.621Z,11.40
2017-10-01T02:28:25.668Z,11.40
2017-10-01T02:28:58.692Z,11.40
2017-10-01T02:29:32.203Z,11.40
2017-10-01T02:30:06.154Z,11.40
2017-10-01T02:30:39.201Z,11.40
2017-10-01T02:31:12.343Z,11.40
2017-10-01T02:31:45.407Z,11.40
2017-10-01T02:32:18.794Z,11.40
2017-10-01T02:32:51.821Z,11.40
2017-10-01T02:33:25.233Z,11.30
2017-10-01T02:33:58.264Z,11.30
2017-10-01T02:34:32.144Z,11.30
2017-10-01T02:35:05.984Z,11.30
2017-10-01T02:35:39.013Z,11.30
2017-10-01T02:36:13.183Z,11.30
2017-10-01T02:36:46.215Z,11.30
2017-10-01T02:37:19.650Z,11.30
2017-10-01T02:37:53.695Z,11.30
2017-10-01T02:38:26.725Z,11.30
2017-10-01T02:38:59.787Z,11.30
2017-10-01T02:39:32.896Z,11.30
2017-10-01T02:40:07.044Z,11.30
2017-10-01T02:40:40.204Z,11.30
2017-10-01T02:41:13.608Z,11.30
2017-10-01T02:41:46.624Z,11.30
2017-10-01T02:42:20.438Z,11.30
2017-10-01T02:42:53.850Z,11.30
2017-10-01T02:43:26.693Z,11.30
2017-10-01T02:44:00.082Z,11.30
2017-10-01T02:44:33.139Z,11.30
2017-10-01T02:45:06.958Z,11.30
2017-10-01T02:45:40.269Z,11.20
2017-10-01T02:46:13.989Z,11.30
2017-10-01T02:46:47.796Z,11.30
2017-10-01T02:47:21.585Z,11.30
2017-10-01T02:47:55.377Z,11.30
2017-10-01T02:48:29.273Z,11.30
2017-10-01T02:49:03.438Z,11.30
2017-10-01T02:49:36.480Z,11.20
2017-10-01T02:50:09.809Z,11.30
2017-10-01T02:50:43.196Z,11.20
2017-10-01T02:51:16.233Z,11.20
2017-10-01T02:51:54.974Z,11.20
2017-10-01T02:52:29.204Z,11.20
2017-10-01T02:53:02.996Z,11.20
2017-10-01T02:53:37.130Z,11.20
2017-10-01T02:54:10.148Z,11.20
2017-10-01T02:54:43.165Z,11.20
2017-10-01T02:55:16.321Z,11.20
2017-10-01T02:55:50.522Z,11.20
2017-10-01T02:56:24.332Z,11.20
2017-10-01T02:56:57.370Z,11.20
2017-10-01T02:57:30.756Z,11.20
2017-10-01T02:58:03.794Z,11.20
2017-10-01T02:58:36.832Z,11.20
2017-10-01T02:59:09.871Z,11.20
2017-10-01T02:59:43.248Z,11.20
2017-10-01T03:00:17.052Z,11.20
2017-10-01T03:00:50.100Z,11.20
2017-10-01T03:01:23.138Z,11.20
2017-10-01T03:01:56.175Z,11.20
2017-10-01T03:02:30.116Z,11.20
2017-10-01T03:03:03.502Z,11.20
2017-10-01T03:03:36.883Z,11.20
2017-10-01T03:04:10.336Z,11.20
2017-10-01T03:04:44.142Z,11.20
2017-10-01T03:05:17.969Z,11.20
2017-10-01T03:05:51.488Z,11.20
2017-10-01T03:06:24.876Z,11.20
2017-10-01T03:06:58.508Z,11.20
2017-10-01T03:07:31.533Z,11.20
2017-10-01T03:08:04.911Z,11.20
2017-10-01T03:08:39.821Z,11.20
2017-10-01T03:09:12.861Z,11.20
2017-10-01T03:09:46.580Z,11.20
2017-10-01T03:10:20.333Z,11.20
2017-10-01T03:10:54.006Z,11.20
2017-10-01T03:11:27.793Z,11.10
2017-10-01T03:12:01.624Z,11.10
2017-10-01T03:12:34.699Z,11.10
2017-10-01T03:13:07.737Z,11.10
2017-10-01T03:13:41.938Z,11.10
2017-10-01T03:14:15.856Z,11.10
2017-10-01T03:14:48.893Z,11.10
2017-10-01T03:15:22.639Z,11.10
2017-10-01T03:15:55.486Z,11.10
2017-10-01T03:16:28.852Z,11.10
2017-10-01T03:17:02.746Z,11.10
2017-10-01T03:17:37.016Z,11.10
2017-10-01T03:18:10.224Z,11.10
2017-10-01T03:18:44.384Z,11.10
2017-10-01T03:19:17.408Z,11.10
2017-10-01T03:19:51.200Z,11.10
2017-10-01T03:20:25.914Z,11.10
2017-10-01T03:20:59.528Z,11.10
2017-10-01T03:21:33.246Z,11.10
2017-10-01T03:22:06.646Z,11.10
2017-10-01T03:22:39.497Z,11.10
2017-10-01T03:23:13.334Z,11.10
2017-10-01T03:23:47.867Z,11.00
2017-10-01T03:24:21.253Z,11.00
2017-10-01T03:24:54.272Z,11.00
2017-10-01T03:25:27.318Z,11.00
2017-10-01T03:26:00.730Z,11.00
2017-10-01T03:26:35.466Z,11.00
2017-10-01T03:27:09.269Z,11.00
2017-10-01T03:27:42.342Z,11.00
2017-10-01T03:28:16.166Z,11.00
2017-10-01T03:28:49.188Z,11.00
2017-10-01T03:29:22.230Z,11.00
2017-10-01T03:29:55.271Z,11.00
2017-10-01T03:30:28.334Z,11.00
2017-10-01T03:31:02.137Z,11.00
2017-10-01T03:31:35.175Z,11.00
2017-10-01T03:32:08.995Z,11.00
2017-10-01T03:32:42.785Z,11.00
2017-10-01T03:33:16.682Z,11.00
2017-10-01T03:33:50.481Z,11.00
2017-10-01T03:34:23.510Z,11.00
2017-10-01T03:34:56.551Z,11.00
2017-10-01T03:35:29.701Z,11.00
2017-10-01T03:36:04.069Z,11.00
2017-10-01T03:36:37.095Z,11.00
2017-10-01T03:37:10.116Z,11.00
2017-10-01T03:37:43.405Z,11.00
2017-10-01T03:38:16.773Z,11.00
2017-10-01T03:38:50.197Z,10.90
2017-10-01T03:39:24.008Z,10.90
2017-10-01T03:39:57.377Z,10.90
2017-10-01T03:40:31.176Z,10.90
2017-10-01T03:41:04.959Z,10.90
2017-10-01T03:41:39.101Z,10.90
2017-10-01T03:42:12.130Z,10.90
2017-10-01T03:43:25.265Z,10.90
2017-10-01T03:43:58.305Z,10.90
2017-10-01T03:44:31.664Z,10.90
2017-10-01T03:45:04.509Z,10.90
2017-10-01T03:45:37.872Z,10.90
2017-10-01T03:46:10.903Z,10.90
2017-10-01T03:46:43.944Z,10.90
2017-10-01T03:47:16.971Z,10.90
2017-10-01T03:47:49.996Z,10.90
2017-10-01T03:48:23.034Z,10.90
2017-10-01T03:48:56.837Z,10.90
2017-10-01T03:49:30.026Z,10.80
2017-10-01T03:50:03.398Z,10.80
2017-10-01T03:50:37.666Z,10.80
2017-10-01T03:51:11.392Z,10.80
2017-10-01T03:51:44.780Z,10.80
2017-10-01T03:52:18.148Z,10.80
2017-10-01T03:52:51.941Z,10.90
2017-10-01T03:53:27.059Z,10.80
2017-10-01T03:54:00.164Z,10.90
2017-10-01T03:54:33.564Z,10.80
2017-10-01T03:55:06.597Z,10.80
2017-10-01T03:55:40.925Z,10.80
2017-10-01T03:56:13.971Z,10.80
2017-10-01T03:56:47.773Z,10.80
2017-10-01T03:57:33.375Z,10.80
2017-10-01T03:58:06.769Z,10.80
2017-10-01T03:58:40.366Z,10.80
2017-10-01T03:59:13.396Z,10.80
2017-10-01T03:59:46.777Z,10.80
2017-10-01T04:00:19.971Z,10.80
2017-10-01T04:00:53.372Z,10.80
2017-10-01T04:01:27.124Z,10.80
2017-10-01T04:02:01.607Z,10.80
2017-10-01T04:02:36.100Z,10.80
2017-10-01T04:03:09.822Z,10.80
2017-10-01T04:03:45.077Z,10.80
2017-10-01T04:04:19.011Z,10.70
2017-10-01T04:04:52.925Z,10.70
2017-10-01T04:05:26.670Z,10.70
2017-10-01T04:06:00.433Z,10.70
2017-10-01T04:06:34.976Z,10.70
2017-10-01T04:07:08.689Z,10.70
2017-10-01T04:07:42.401Z,10.80
2017-10-01T04:08:16.124Z,10.80
2017-10-01T04:08:49.854Z,10.70
2017-10-01T04:09:23.577Z,10.70
2017-10-01T04:09:57.299Z,10.70
2017-10-01T04:10:31.039Z,10.70
2017-10-01T04:11:04.758Z,10.70
2017-10-01T04:11:39.258Z,10.70
2017-10-01T04:12:12.976Z,10.70
2017-10-01T04:12:46.700Z,10.70
2017-10-01T04:13:20.428Z,10.70
2017-10-01T04:13:54.169Z,10.70
2017-10-01T04:14:27.911Z,10.70
2017-10-01T04:15:01.633Z,10.70
2017-10-01T04:15:35.350Z,10.70
2017-10-01T04:16:08.889Z,10.70
2017-10-01T04:16:43.501Z,10.70
2017-10-01T04:17:18.115Z,10.70
2017-10-01T04:17:52.616Z,10.70
2017-10-01T04:18:27.140Z,10.60
2017-10-01T04:19:00.862Z,10.70
2017-10-01T04:19:34.582Z,10.60
2017-10-01T04:20:08.295Z,10.70
2017-10-01T04:20:42.001Z,10.60
2017-10-01T04:21:16.295Z,10.60
2017-10-01T04:21:50.793Z,10.60
2017-10-01T04:22:24.507Z,10.60
2017-10-01T04:22:59.029Z,10.60
2017-10-01T04:23:32.765Z,10.60
2017-10-01T04:24:06.148Z,10.60
2017-10-01T04:24:39.863Z,10.60
2017-10-01T04:25:13.989Z,10.60
2017-10-01T04:25:47.393Z,10.60
2017-10-01T04:26:21.242Z,10.60
2017-10-01T04:26:56.848Z,10.60
2017-10-01T04:27:30.578Z,10.60
2017-10-01T04:28:05.083Z,10.60
2017-10-01T04:28:39.579Z,10.60
2017-10-01T04:29:13.321Z,10.60
2017-10-01T04:29:47.178Z,10.60
2017-10-01T04:30:21.668Z,10.60
2017-10-01T04:30:55.392Z,10.60
2017-10-01T04:31:29.113Z,10.60
2017-10-01T04:32:03.177Z,10.60
2017-10-01T04:32:37.733Z,10.60
2017-10-01T04:33:11.453Z,10.60
2017-10-01T04:33:45.897Z,10.60
2017-10-01T04:34:19.616Z,10.60
2017-10-01T04:34:53.339Z,10.50
2017-10-01T04:35:27.061Z,10.50
2017-10-01T04:36:01.543Z,10.50
2017-10-01T04:36:36.025Z,10.50
2017-10-01T04:37:09.760Z,10.50
2017-10-01T04:37:44.243Z,10.50
2017-10-01T04:38:17.982Z,10.50
2017-10-01T04:38:51.720Z,10.50
2017-10-01T04:39:25.485Z,10.50
2017-10-01T04:39:59.207Z,10.50
2017-10-01T04:40:32.945Z,10.50
2017-10-01T04:41:06.670Z,10.50
2017-10-01T04:41:40.688Z,10.50
2017-10-01T04:42:14.836Z,10.50
2017-10-01T04:42:48.603Z,10.50
2017-10-01T04:43:23.088Z,10.50
2017-10-01T04:43:56.802Z,10.50
2017-10-01T04:44:30.535Z,10.50
2017-10-01T04:45:04.337Z,10.50
2017-10-01T04:45:37.875Z,10.50
2017-10-01T04:46:12.350Z,10.50
2017-10-01T04:46:46.072Z,10.50
2017-10-01T04:47:20.899Z,10.60
2017-10-01T04:47:54.637Z,10.50
2017-10-01T04:48:28.158Z,10.50
2017-10-01T04:49:02.771Z,10.60
2017-10-01T04:49:37.254Z,10.60
2017-10-01T04:50:10.975Z,10.50
2017-10-01T04:50:45.261Z,10.60
2017-10-01T04:51:18.998Z,10.60
2017-10-01T04:51:52.707Z,10.60
2017-10-01T04:52:26.468Z,10.60
2017-10-01T04:52:59.995Z,10.60
2017-10-01T04:53:33.724Z,10.60
2017-10-01T04:54:08.216Z,10.60
2017-10-01T04:54:41.940Z,10.60
2017-10-01T04:55:15.674Z,10.60
2017-10-01T04:55:49.192Z,10.60
2017-10-01T04:56:23.687Z,10.60
2017-10-01T04:56:57.425Z,10.60
2017-10-01T04:57:32.763Z,10.60
2017-10-01T04:58:06.471Z,10.60
2017-10-01T04:58:40.216Z,10.60
2017-10-01T04:59:14.721Z,10.60
2017-10-01T04:59:49.203Z,10.60
2017-10-01T05:00:22.918Z,10.60
2017-10-01T05:00:57.415Z,10.60
2017-10-01T05:01:31.143Z,10.60
2017-10-01T05:02:04.867Z,10.60
2017-10-01T05:02:38.920Z,10.70
2017-10-01T05:03:13.394Z,10.70
2017-10-01T05:03:47.416Z,10.70
2017-10-01T05:04:21.928Z,10.70
2017-10-01T05:04:56.405Z,10.70
2017-10-01T05:05:30.121Z,10.70
2017-10-01T05:06:04.592Z,10.80
2017-10-01T05:06:38.314Z,10.70
2017-10-01T05:07:12.805Z,10.80
2017-10-01T05:07:47.495Z,10.80
2017-10-01T05:08:21.204Z,10.80
2017-10-01T05:08:54.921Z,10.80
2017-10-01T05:09:29.403Z,10.80
2017-10-01T05:10:03.150Z,10.80
2017-10-01T05:10:36.711Z,10.90
2017-10-01T05:11:11.198Z,10.90
2017-10-01T05:11:44.991Z,10.90
2017-10-01T05:12:18.730Z,10.90
2017-10-01T05:12:52.456Z,10.90
2017-10-01T05:13:26.187Z,11.00
2017-10-01T05:14:00.668Z,11.00
2017-10-01T05:14:34.488Z,11.00
2017-10-01T05:15:08.980Z,11.00
2017-10-01T05:15:42.708Z,11.10
2017-10-01T05:16:16.414Z,11.10
2017-10-01T05:16:50.136Z,11.10
2017-10-01T05:17:25.569Z,11.10
2017-10-01T05:17:59.301Z,11.10
2017-10-01T05:18:33.152Z,11.20
2017-10-01T05:19:06.884Z,11.20
2017-10-01T05:19:40.420Z,11.20
2017-10-01T05:20:14.209Z,11.20
2017-10-01T05:20:47.748Z,11.20
2017-10-01T05:21:21.116Z,11.30
2017-10-01T05:21:55.590Z,11.30
2017-10-01T05:22:29.319Z,11.30
2017-10-01T05:23:03.984Z,11.40
2017-10-01T05:23:37.722Z,11.30
2017-10-01T05:24:12.189Z,11.40
2017-10-01T05:24:45.924Z,11.40
2017-10-01T05:25:19.646Z,11.40
2017-10-01T05:25:53.380Z,11.40
2017-10-01T05:26:26.924Z,11.40
2017-10-01T05:27:00.684Z,11.40
2017-10-01T05:27:34.646Z,11.40
2017-10-01T05:28:08.400Z,11.50
2017-10-01T05:28:41.767Z,11.50
2017-10-01T05:29:15.488Z,11.50
2017-10-01T05:29:49.238Z,11.50
2017-10-01T05:30:23.712Z,11.50
2017-10-01T05:30:58.083Z,11.50
2017-10-01T05:31:31.816Z,11.60
2017-10-01T05:32:05.667Z,11.60
2017-10-01T05:32:39.379Z,11.60
2017-10-01T05:33:13.128Z,11.60
2017-10-01T05:33:46.855Z,11.60
2017-10-01T05:34:20.597Z,11.60
2017-10-01T05:34:55.080Z,11.60
2017-10-01T05:35:28.456Z,11.60
2017-10-01T05:36:02.389Z,11.70
2017-10-01T05:36:36.116Z,11.60
2017-10-01T05:37:09.499Z,11.70
2017-10-01T05:37:43.220Z,11.70
2017-10-01T05:38:16.970Z,11.70
2017-10-01T05:38:50.692Z,11.70
2017-10-01T05:39:24.414Z,11.70
2017-10-01T05:39:58.896Z,11.70
2017-10-01T05:40:32.644Z,11.70
2017-10-01T05:41:06.355Z,11.80
2017-10-01T05:41:40.118Z,11.80
2017-10-01T05:42:13.842Z,11.80
2017-10-01T05:42:47.566Z,11.80
2017-10-01T05:43:21.302Z,11.80
2017-10-01T05:43:55.035Z,11.80
2017-10-01T05:44:28.764Z,11.80
2017-10-01T05:45:02.501Z,11.80
2017-10-01T05:45:36.265Z,11.80
2017-10-01T05:46:09.971Z,11.90
2017-10-01T05:46:43.724Z,11.80
2017-10-01T05:47:17.448Z,11.80
2017-10-01T05:47:51.157Z,11.80
2017-10-01T05:48:24.901Z,11.90
2017-10-01T05:48:59.023Z,11.90
2017-10-01T05:49:32.746Z,11.90
2017-10-01T05:50:06.469Z,11.90
2017-10-01T05:50:40.957Z,12.00
2017-10-01T05:51:14.685Z,12.00
2017-10-01T05:51:48.422Z,12.00
2017-10-01T05:52:22.252Z,12.00
2017-10-01T05:52:56.577Z,12.00
2017-10-01T05:53:30.144Z,12.00
2017-10-01T05:54:04.891Z,12.00
2017-10-01T05:54:38.612Z,12.00
2017-10-01T05:55:12.348Z,12.00
2017-10-01T05:55:46.877Z,12.10
2017-10-01T05:56:20.412Z,12.00
2017-10-01T05:56:53.992Z,12.00
2017-10-01T05:57:27.717Z,12.10
2017-10-01T05:58:02.312Z,12.10
2017-10-01T05:58:36.050Z,12.10
2017-10-01T05:59:09.771Z,12.10
2017-10-01T05:59:43.489Z,12.20
2017-10-01T06:00:17.234Z,12.20
2017-10-01T06:00:50.951Z,12.20
2017-10-01T06:01:24.689Z,12.20
2017-10-01T06:01:58.422Z,12.20
2017-10-01T06:02:32.151Z,12.20
2017-10-01T06:03:06.645Z,12.20
2017-10-01T06:03:40.657Z,12.20
2017-10-01T06:04:15.153Z,12.20
2017-10-01T06:04:48.875Z,12.20
2017-10-01T06:05:22.678Z,12.20
2017-10-01T06:05:56.423Z,12.30
2017-10-01T06:06:30.231Z,12.30
2017-10-01T06:07:04.708Z,12.30
2017-10-01T06:07:38.440Z,12.30
2017-10-01T06:08:12.160Z,12.30
2017-10-01T06:08:46.253Z,12.30
2017-10-01T06:09:19.987Z,12.30
2017-10-01T06:09:55.208Z,12.30
2017-10-01T06:10:28.929Z,12.30
2017-10-01T06:11:04.653Z,12.30
2017-10-01T06:11:38.375Z,12.30
2017-10-01T06:12:12.085Z,12.30
2017-10-01T06:12:45.800Z,12.40
2017-10-01T06:13:19.877Z,12.40
2017-10-01T06:13:53.604Z,12.40
2017-10-01T06:14:27.342Z,12.40
2017-10-01T06:15:01.049Z,12.40
2017-10-01T06:15:34.777Z,12.40
2017-10-01T06:16:08.493Z,12.40
2017-10-01T06:16:42.974Z,12.40
2017-10-01T06:17:16.717Z,12.40
2017-10-01T06:17:50.435Z,12.40
2017-10-01T06:18:24.157Z,12.40
2017-10-01T06:18:57.931Z,12.40
2017-10-01T06:19:31.621Z,12.40
2017-10-01T06:20:05.368Z,12.40
2017-10-01T06:20:39.140Z,12.40
2017-10-01T06:21:13.616Z,12.40
2017-10-01T06:21:47.325Z,12.40
2017-10-01T06:22:21.041Z,12.40
2017-10-01T06:22:55.691Z,12.40
2017-10-01T06:23:29.424Z,12.40
2017-10-01T06:24:03.910Z,12.40
2017-10-01T06:24:37.983Z,12.40
2017-10-01T06:25:11.716Z,12.40
2017-10-01T06:25:45.430Z,12.40
2017-10-01T06:26:19.233Z,12.40
2017-10-01T06:26:52.998Z,12.40
2017-10-01T06:27:27.480Z,12.40
2017-10-01T06:28:01.216Z,12.40
2017-10-01T06:28:34.945Z,12.40
2017-10-01T06:29:08.464Z,12.40
2017-10-01T06:29:42.210Z,12.40
2017-10-01T06:30:15.954Z,12.50
2017-10-01T06:30:50.456Z,12.50
2017-10-01T06:31:24.187Z,12.50
2017-10-01T06:31:57.971Z,12.50
2017-10-01T06:32:31.686Z,12.50
2017-10-01T06:33:05.428Z,12.50
2017-10-01T06:33:39.916Z,12.50
2017-10-01T06:34:13.679Z,12.50
2017-10-01T06:34:47.636Z,12.50
2017-10-01T06:35:22.148Z,12.50
2017-10-01T06:35:56.629Z,12.50
2017-10-01T06:36:30.357Z,12.50
2017-10-01T06:37:04.070Z,12.50
2017-10-01T06:37:37.797Z,12.50
2017-10-01T06:38:11.531Z,12.50
2017-10-01T06:38:45.270Z,12.50
2017-10-01T06:39:19.002Z,12.50
2017-10-01T06:39:53.516Z,12.50
2017-10-01T06:40:28.019Z,12.50
2017-10-01T06:41:02.507Z,12.50
2017-10-01T06:41:36.269Z,12.50
2017-10-01T06:42:09.651Z,12.50
2017-10-01T06:42:43.373Z,12.50
2017-10-01T06:43:17.109Z,12.50
2017-10-01T06:43:51.279Z,12.50
2017-10-01T06:44:25.764Z,12.50
2017-10-01T06:44:59.805Z,12.50
2017-10-01T06:45:33.531Z,12.50
2017-10-01T06:46:07.251Z,12.40
2017-10-01T06:46:40.965Z,12.50
2017-10-01T06:47:15.457Z,12.50
2017-10-01T06:47:49.935Z,12.50
2017-10-01T06:48:23.678Z,12.50
2017-10-01T06:48:57.207Z,12.50
2017-10-01T06:49:31.058Z,12.50
2017-10-01T06:50:05.174Z,12.50
2017-10-01T06:50:38.936Z,12.50
2017-10-01T06:51:13.410Z,12.50
2017-10-01T06:51:47.116Z,12.50
2017-10-01T06:52:20.653Z,12.50
2017-10-01T06:52:54.187Z,12.60
2017-10-01T06:53:27.927Z,12.60
2017-10-01T06:54:01.653Z,12.60
2017-10-01T06:54:35.375Z,12.60
2017-10-01T06:55:09.964Z,12.60
2017-10-01T06:55:43.789Z,12.60
2017-10-01T06:56:18.272Z,12.60
2017-10-01T06:56:51.999Z,12.60
2017-10-01T06:57:25.737Z,12.70
2017-10-01T06:57:59.515Z,12.60
2017-10-01T06:58:33.237Z,12.60
2017-10-01T06:59:06.971Z,12.60
2017-10-01T06:59:40.693Z,12.60
2017-10-01T07:00:14.693Z,12.60
2017-10-01T07:00:48.413Z,12.60
2017-10-01T07:01:22.144Z,12.60
2017-10-01T07:01:55.861Z,12.70
2017-10-01T07:02:29.597Z,12.70
2017-10-01T07:03:04.090Z,12.70
2017-10-01T07:03:37.833Z,12.70
2017-10-01T07:04:11.556Z,12.70
2017-10-01T07:04:45.398Z,12.70
2017-10-01T07:05:19.172Z,12.70
2017-10-01T07:05:53.568Z,12.70
2017-10-01T07:06:39.097Z,12.70
2017-10-01T07:07:12.821Z,12.70
2017-10-01T07:07:46.549Z,12.70
2017-10-01T07:08:20.285Z,12.70
2017-10-01T07:08:54.058Z,12.70
2017-10-01T07:09:27.880Z,12.70
2017-10-01T07:10:01.653Z,12.70
2017-10-01T07:10:35.364Z,12.70
2017-10-01T07:11:09.112Z,12.70
2017-10-01T07:11:42.829Z,12.70
2017-10-01T07:12:16.555Z,12.70
2017-10-01T07:12:51.047Z,12.70
2017-10-01T07:13:24.783Z,12.70
2017-10-01T07:13:58.511Z,12.70
2017-10-01T07:14:32.246Z,12.70
2017-10-01T07:15:06.751Z,12.70
2017-10-01T07:15:40.202Z,12.70